createdAt,value
2018-09-06T00:01:50.293Z,21.44
2018-09-06T00:04:18.949Z,21.40
2018-09-06T00:06:47.513Z,21.38
2018-09-06T00:09:16.092Z,21.37
2018-09-06T00:11:44.973Z,21.37
2018-09-06T00:14:13.557Z,21.38
2018-09-06T00:16:42.184Z,21.34
2018-09-06T00:19:10.877Z,21.31
2018-09-06T00:21:39.452Z,21.27
2018-09-06T00:24:08.025Z,21.24
2018-09-06T00:26:36.651Z,21.21
2018-09-06T00:29:05.225Z,21.18
2018-09-06T00:31:33.833Z,21.16
2018-09-06T00:34:02.425Z,21.08
2018-09-06T00:36:30.994Z,21.09
2018-09-06T00:38:59.552Z,21.12
2018-09-06T00:41:28.177Z,21.13
2018-09-06T00:43:56.733Z,21.07
2018-09-06T00:46:25.301Z,20.97
2018-09-06T00:48:53.902Z,20.97
2018-09-06T00:51:22.483Z,20.95
2018-09-06T00:53:59.981Z,20.94
2018-09-06T00:56:28.611Z,20.92
2018-09-06T00:58:57.255Z,20.83
2018-09-06T01:01:27.602Z,20.77
2018-09-06T01:03:56.203Z,20.69
2018-09-06T01:06:24.774Z,20.67
2018-09-06T01:08:53.362Z,20.69
2018-09-06T01:11:21.915Z,20.64
2018-09-06T01:13:50.472Z,20.64
2018-09-06T01:16:19.135Z,20.57
2018-09-06T01:18:47.692Z,20.50
2018-09-06T01:21:16.547Z,20.40
2018-09-06T01:23:45.571Z,20.36
2018-09-06T01:26:14.151Z,20.39
2018-09-06T01:28:42.695Z,20.42
2018-09-06T01:31:12.139Z,20.45
2018-09-06T01:33:40.696Z,20.47
2018-09-06T01:36:14.436Z,20.48
2018-09-06T01:38:42.975Z,20.44
2018-09-06T01:41:11.551Z,20.39
2018-09-06T01:43:40.163Z,20.36
2018-09-06T01:46:08.733Z,20.32
2018-09-06T01:48:37.304Z,20.28
2018-09-06T01:51:06.099Z,20.26
2018-09-06T01:53:34.655Z,20.26
2018-09-06T01:56:03.219Z,20.14
2018-09-06T01:58:31.822Z,20.08
2018-09-06T02:01:00.385Z,20.00
2018-09-06T02:03:28.951Z,19.97
2018-09-06T02:05:57.544Z,19.99
2018-09-06T02:08:26.112Z,19.96
2018-09-06T02:10:54.655Z,19.91
2018-09-06T02:13:23.595Z,19.94
2018-09-06T02:15:52.145Z,19.96
2018-09-06T02:18:20.700Z,20.06
2018-09-06T02:20:49.366Z,20.07
2018-09-06T02:23:17.907Z,20.04
2018-09-06T02:25:46.550Z,20.02
2018-09-06T02:28:15.303Z,20.01
2018-09-06T02:30:43.863Z,20.00
2018-09-06T02:33:12.415Z,20.03
2018-09-06T02:35:41.495Z,20.03
2018-09-06T02:38:10.044Z,20.07
2018-09-06T02:40:39.039Z,20.01
2018-09-06T02:43:10.359Z,20.04
2018-09-06T02:45:38.992Z,20.07
2018-09-06T02:48:07.563Z,20.08
2018-09-06T02:50:41.443Z,20.08
2018-09-06T02:53:10.377Z,20.08
2018-09-06T02:55:39.071Z,20.03
2018-09-06T02:58:07.791Z,19.99
2018-09-06T03:00:37.583Z,19.93
2018-09-06T03:03:06.388Z,19.86
2018-09-06T03:05:35.085Z,19.85
2018-09-06T03:08:03.719Z,19.83
2018-09-06T03:10:37.315Z,19.80
2018-09-06T03:13:05.960Z,19.79
2018-09-06T03:15:34.544Z,19.78
2018-09-06T03:18:03.583Z,19.78
2018-09-06T03:20:32.171Z,19.79
2018-09-06T03:23:01.047Z,19.77
2018-09-06T03:25:30.567Z,19.74
2018-09-06T03:27:59.115Z,19.74
2018-09-06T03:30:27.717Z,19.77
2018-09-06T03:32:56.307Z,19.79
2018-09-06T03:35:24.925Z,19.81
2018-09-06T03:37:53.524Z,19.83
2018-09-06T03:40:22.724Z,19.81
2018-09-06T03:42:51.283Z,19.79
2018-09-06T03:45:19.829Z,19.72
2018-09-06T03:47:48.446Z,19.71
2018-09-06T03:50:17.016Z,19.69
2018-09-06T03:52:45.562Z,19.72
2018-09-06T03:55:14.999Z,19.73
2018-09-06T03:57:44.016Z,19.76
2018-09-06T04:00:12.655Z,19.75
2018-09-06T04:02:41.333Z,19.74
2018-09-06T04:05:09.899Z,19.72
2018-09-06T04:07:38.527Z,19.75
2018-09-06T04:10:07.304Z,19.78
2018-09-06T04:12:35.859Z,19.84
2018-09-06T04:15:04.720Z,19.84
2018-09-06T04:17:33.376Z,19.83
2018-09-06T04:20:01.927Z,19.82
2018-09-06T04:22:30.509Z,19.82
2018-09-06T04:24:59.111Z,19.84
2018-09-06T04:27:27.663Z,19.86
2018-09-06T04:29:56.347Z,19.88
2018-09-06T04:32:25.204Z,19.84
2018-09-06T04:34:53.873Z,19.82
2018-09-06T04:37:22.435Z,19.81
2018-09-06T04:39:51.376Z,19.84
2018-09-06T04:42:19.955Z,19.76
2018-09-06T04:44:48.503Z,19.79
2018-09-06T04:47:17.095Z,19.78
2018-09-06T04:49:45.636Z,19.72
2018-09-06T04:52:14.191Z,19.76
2018-09-06T04:54:42.856Z,19.78
2018-09-06T04:57:11.404Z,19.82
2018-09-06T04:59:39.980Z,19.84
2018-09-06T05:02:08.676Z,19.83
2018-09-06T05:04:37.235Z,19.83
2018-09-06T05:07:05.875Z,19.87
2018-09-06T05:09:34.531Z,19.90
2018-09-06T05:12:03.095Z,19.89
2018-09-06T05:14:31.692Z,19.92
2018-09-06T05:17:00.471Z,19.95
2018-09-06T05:19:29.035Z,19.92
2018-09-06T05:21:57.680Z,19.90
2018-09-06T05:24:26.476Z,19.84
2018-09-06T05:26:55.059Z,19.83
2018-09-06T05:29:24.052Z,19.81
2018-09-06T05:31:52.715Z,19.80
2018-09-06T05:34:21.258Z,19.79
2018-09-06T05:36:49.803Z,19.79
2018-09-06T05:39:18.387Z,19.79
2018-09-06T05:41:46.966Z,19.79
2018-09-06T05:44:15.519Z,19.79
2018-09-06T05:46:44.237Z,19.80
2018-09-06T05:49:12.796Z,19.79
2018-09-06T05:51:41.347Z,19.76
2018-09-06T05:54:10.003Z,19.80
2018-09-06T05:56:38.560Z,19.85
2018-09-06T05:59:07.135Z,19.92
2018-09-06T06:01:36.104Z,19.92
2018-09-06T06:04:04.663Z,19.86
2018-09-06T06:06:33.203Z,19.87
2018-09-06T06:09:01.799Z,19.87
2018-09-06T06:11:30.415Z,19.92
2018-09-06T06:13:58.959Z,19.93
2018-09-06T06:16:27.547Z,19.94
2018-09-06T06:18:56.107Z,20.02
2018-09-06T06:21:24.675Z,20.19
2018-09-06T06:23:53.271Z,20.36
2018-09-06T06:26:21.823Z,20.66
2018-09-06T06:28:50.371Z,20.96
2018-09-06T06:31:18.955Z,21.20
2018-09-06T06:33:47.535Z,21.39
2018-09-06T06:36:16.086Z,21.61
2018-09-06T06:38:44.771Z,21.82
2018-09-06T06:41:13.341Z,22.04
2018-09-06T06:43:41.917Z,22.23
2018-09-06T06:46:10.787Z,22.41
2018-09-06T06:48:39.293Z,22.66
2018-09-06T06:51:07.848Z,22.87
2018-09-06T06:53:36.530Z,22.91
2018-09-06T06:56:05.252Z,23.12
2018-09-06T06:58:33.884Z,23.30
2018-09-06T07:01:02.709Z,23.46
2018-09-06T07:03:31.209Z,23.48
2018-09-06T07:05:59.748Z,23.12
2018-09-06T07:08:28.666Z,22.81
2018-09-06T07:10:57.215Z,22.55
2018-09-06T07:13:25.764Z,22.41
2018-09-06T07:15:54.720Z,22.35
2018-09-06T07:18:23.387Z,22.26
2018-09-06T07:20:51.939Z,22.28
2018-09-06T07:23:20.783Z,22.72
2018-09-06T07:25:49.354Z,23.45
2018-09-06T07:28:17.919Z,23.99
2018-09-06T07:30:46.612Z,24.47
2018-09-06T07:33:15.176Z,24.85
2018-09-06T07:35:43.727Z,25.25
2018-09-06T07:38:12.403Z,25.54
2018-09-06T07:40:40.952Z,26.03
2018-09-06T07:43:09.507Z,26.35
2018-09-06T07:45:38.180Z,26.79
2018-09-06T07:48:06.964Z,27.28
2018-09-06T07:50:35.523Z,27.56
2018-09-06T07:53:04.223Z,27.76
2018-09-06T07:55:32.772Z,28.16
2018-09-06T07:58:01.344Z,28.40
2018-09-06T08:00:29.973Z,28.61
2018-09-06T08:02:58.523Z,28.81
2018-09-06T08:05:27.072Z,29.09
2018-09-06T08:07:55.704Z,29.37
2018-09-06T08:10:24.315Z,29.65
2018-09-06T08:12:52.883Z,29.88
2018-09-06T08:15:21.875Z,30.04
2018-09-06T08:17:50.407Z,30.38
2018-09-06T08:20:19.032Z,30.57
2018-09-06T08:22:47.780Z,30.63
2018-09-06T08:25:16.348Z,30.68
2018-09-06T08:27:44.907Z,30.83
2018-09-06T08:30:13.584Z,30.70
2018-09-06T08:32:42.171Z,31.09
2018-09-06T08:35:10.724Z,31.15
2018-09-06T08:37:39.311Z,31.35
2018-09-06T08:40:07.991Z,31.49
2018-09-06T08:42:36.548Z,31.21
2018-09-06T08:45:05.205Z,31.36
2018-09-06T08:47:33.788Z,31.06
2018-09-06T08:50:02.347Z,30.95
2018-09-06T08:52:31.073Z,31.04
2018-09-06T08:54:59.567Z,31.12
2018-09-06T08:57:28.127Z,31.23
2018-09-06T08:59:56.807Z,31.63
2018-09-06T09:02:25.453Z,31.75
2018-09-06T09:04:53.971Z,31.94
2018-09-06T09:07:23.206Z,32.09
2018-09-06T09:09:51.759Z,32.44
2018-09-06T09:12:20.425Z,32.52
2018-09-06T09:14:49.042Z,32.64
2018-09-06T09:17:17.716Z,32.97
2018-09-06T09:19:46.297Z,33.04
2018-09-06T09:22:15.127Z,32.83
2018-09-06T09:24:43.463Z,33.22
2018-09-06T09:27:12.051Z,33.63
2018-09-06T09:29:41.192Z,33.60
2018-09-06T09:32:09.760Z,33.65
2018-09-06T09:34:38.339Z,33.80
2018-09-06T09:37:07.036Z,33.65
2018-09-06T09:39:35.640Z,33.62
2018-09-06T09:42:04.210Z,33.71
2018-09-06T09:44:32.839Z,34.09
2018-09-06T09:49:29.102Z,34.74
2018-09-06T09:51:57.788Z,33.22
2018-09-06T09:54:26.335Z,33.12
2018-09-06T09:56:54.937Z,33.39
2018-09-06T09:59:23.547Z,31.76
2018-09-06T10:01:57.416Z,31.94
2018-09-06T10:04:31.690Z,31.59
2018-09-06T10:07:05.532Z,31.21
2018-09-06T10:09:34.244Z,31.85
2018-09-06T10:12:02.858Z,32.45
2018-09-06T10:14:31.404Z,32.71
2018-09-06T10:17:00.008Z,32.44
2018-09-06T10:19:28.566Z,32.03
2018-09-06T10:21:57.175Z,30.93
2018-09-06T10:24:25.855Z,30.12
2018-09-06T10:26:54.527Z,29.70
2018-09-06T10:29:23.113Z,29.03
2018-09-06T10:31:51.818Z,28.02
2018-09-06T10:34:20.411Z,26.70
2018-09-06T10:36:48.980Z,25.64
2018-09-06T10:39:17.767Z,24.90
2018-09-06T10:41:46.341Z,24.23
2018-09-06T10:44:14.947Z,23.44
2018-09-06T10:46:43.649Z,22.48
2018-09-06T10:49:12.196Z,21.73
2018-09-06T10:51:40.760Z,21.45
2018-09-06T10:54:09.479Z,21.09
2018-09-06T10:56:38.073Z,20.84
2018-09-06T10:59:06.732Z,20.89
2018-09-06T11:01:35.471Z,20.97
2018-09-06T11:04:04.039Z,20.79
2018-09-06T11:06:32.599Z,20.54
2018-09-06T11:09:01.284Z,20.38
2018-09-06T11:11:29.871Z,20.48
2018-09-06T11:13:58.424Z,20.69
2018-09-06T11:16:27.180Z,20.98
2018-09-06T11:18:55.735Z,20.90
2018-09-06T11:21:24.380Z,20.96
2018-09-06T11:23:52.991Z,21.16
2018-09-06T11:26:21.544Z,21.39
2018-09-06T11:28:50.102Z,21.64
2018-09-06T11:31:18.761Z,21.83
2018-09-06T11:33:47.350Z,21.97
2018-09-06T11:36:15.935Z,21.98
2018-09-06T11:38:44.511Z,21.73
2018-09-06T11:41:13.072Z,21.59
2018-09-06T11:43:41.640Z,21.57
2018-09-06T11:46:10.480Z,21.49
2018-09-06T11:48:39.035Z,21.53
2018-09-06T11:51:08.427Z,21.55
2018-09-06T11:53:37.131Z,21.58
2018-09-06T11:56:06.054Z,21.72
2018-09-06T11:58:34.615Z,21.83
2018-09-06T12:01:03.415Z,22.00
2018-09-06T12:03:32.111Z,22.14
2018-09-06T12:06:00.709Z,22.32
2018-09-06T12:08:29.316Z,22.58
2018-09-06T12:10:57.899Z,22.88
2018-09-06T12:13:26.456Z,23.13
2018-09-06T12:15:55.127Z,23.38
2018-09-06T12:18:23.802Z,23.50
2018-09-06T12:20:52.399Z,23.58
2018-09-06T12:23:21.024Z,23.75
2018-09-06T12:25:49.669Z,23.89
2018-09-06T12:28:18.257Z,23.84
2018-09-06T12:30:46.939Z,23.89
2018-09-06T12:33:15.550Z,23.99
2018-09-06T12:35:44.181Z,24.10
2018-09-06T12:38:13.112Z,24.21
2018-09-06T12:40:41.683Z,24.34
2018-09-06T12:43:10.256Z,24.46
2018-09-06T12:45:38.915Z,24.64
2018-09-06T12:48:07.512Z,24.86
2018-09-06T12:50:36.175Z,25.03
2018-09-06T12:53:04.847Z,25.19
2018-09-06T12:55:33.432Z,25.30
2018-09-06T12:58:02.011Z,25.40
2018-09-06T13:00:30.645Z,25.61
2018-09-06T13:02:59.204Z,25.64
2018-09-06T13:05:27.768Z,25.74
2018-09-06T13:07:56.394Z,25.76
2018-09-06T13:10:24.987Z,25.93
2018-09-06T13:12:53.568Z,26.02
2018-09-06T13:15:22.171Z,26.05
2018-09-06T13:17:50.727Z,26.08
2018-09-06T13:20:20.248Z,26.06
2018-09-06T13:22:48.871Z,26.12
2018-09-06T13:25:17.411Z,26.13
2018-09-06T13:27:45.995Z,26.16
2018-09-06T13:30:15.008Z,26.21
2018-09-06T13:32:43.568Z,26.22
2018-09-06T13:35:12.128Z,26.23
2018-09-06T13:37:40.731Z,26.29
2018-09-06T13:40:09.340Z,26.39
2018-09-06T13:42:37.892Z,26.35
2018-09-06T13:45:06.659Z,26.38
2018-09-06T13:47:35.216Z,26.38
2018-09-06T13:50:03.798Z,26.41
2018-09-06T13:52:32.768Z,26.40
2018-09-06T13:55:01.312Z,26.36
2018-09-06T13:57:29.867Z,26.36
2018-09-06T13:59:58.488Z,26.41
2018-09-06T14:02:27.047Z,26.52
2018-09-06T14:04:55.738Z,26.49
2018-09-06T14:07:24.314Z,26.47
2018-09-06T14:09:52.935Z,26.52
2018-09-06T14:12:21.497Z,26.52
2018-09-06T14:14:50.191Z,26.60
2018-09-06T14:17:18.738Z,26.58
2018-09-06T14:19:47.296Z,26.57
2018-09-06T14:22:15.960Z,26.63
2018-09-06T14:24:44.515Z,26.72
2018-09-06T14:27:13.108Z,26.75
2018-09-06T14:29:42.268Z,26.74
2018-09-06T14:32:10.887Z,26.68
2018-09-06T14:34:39.385Z,26.62
2018-09-06T14:37:08.323Z,26.69
2018-09-06T14:39:36.916Z,26.70
2018-09-06T14:42:05.588Z,26.71
2018-09-06T14:44:34.323Z,26.65
2018-09-06T14:47:02.891Z,26.61
2018-09-06T14:49:31.507Z,26.63
2018-09-06T14:52:00.168Z,26.66
2018-09-06T14:54:28.724Z,26.66
2018-09-06T14:56:57.271Z,26.61
2018-09-06T14:59:26.399Z,26.64
2018-09-06T15:01:55.036Z,26.67
2018-09-06T15:04:23.631Z,26.67
2018-09-06T15:06:52.204Z,26.70
2018-09-06T15:09:20.756Z,26.63
2018-09-06T15:11:49.291Z,26.58
2018-09-06T15:14:18.756Z,26.37
2018-09-06T15:16:47.833Z,25.71
2018-09-06T15:19:16.419Z,25.02
2018-09-06T15:21:45.075Z,24.63
2018-09-06T15:24:13.988Z,23.91
2018-09-06T15:26:42.576Z,23.51
2018-09-06T15:29:11.483Z,22.99
2018-09-06T15:31:40.073Z,22.84
2018-09-06T15:34:08.647Z,22.84
2018-09-06T15:36:37.830Z,22.56
2018-09-06T15:39:08.983Z,22.09
2018-09-06T15:41:37.632Z,21.48
2018-09-06T15:44:06.875Z,21.32
2018-09-06T15:46:35.460Z,20.97
2018-09-06T15:49:04.123Z,20.70
2018-09-06T15:51:32.671Z,20.28
2018-09-06T15:54:01.228Z,19.73
2018-09-06T15:56:29.811Z,19.67
2018-09-06T15:58:58.358Z,19.76
2018-09-06T16:01:26.970Z,19.89
2018-09-06T16:03:55.639Z,19.99
2018-09-06T16:06:24.139Z,20.10
2018-09-06T16:08:52.691Z,20.03
2018-09-06T16:11:21.659Z,20.00
2018-09-06T16:13:50.285Z,19.97
2018-09-06T16:16:18.955Z,19.89
2018-09-06T16:18:47.799Z,19.72
2018-09-06T16:21:16.371Z,19.64
2018-09-06T16:23:44.935Z,19.65
2018-09-06T16:26:13.596Z,19.66
2018-09-06T16:28:42.140Z,19.58
2018-09-06T16:31:10.700Z,19.46
2018-09-06T16:33:39.403Z,19.31
2018-09-06T16:36:07.975Z,19.16
2018-09-06T16:38:36.560Z,19.18
2018-09-06T16:41:05.288Z,19.21
2018-09-06T16:43:33.848Z,19.24
2018-09-06T16:46:02.428Z,19.29
2018-09-06T16:48:31.111Z,19.25
2018-09-06T16:50:59.683Z,19.24
2018-09-06T16:53:28.256Z,19.24
2018-09-06T16:55:57.338Z,19.30
2018-09-06T16:58:25.891Z,19.33
2018-09-06T17:00:54.498Z,19.32
2018-09-06T17:03:23.367Z,19.30
2018-09-06T17:05:51.928Z,19.23
2018-09-06T17:08:20.487Z,19.16
2018-09-06T17:10:49.316Z,18.98
2018-09-06T17:13:17.920Z,18.92
2018-09-06T17:15:52.053Z,18.88
2018-09-06T17:18:20.624Z,18.92
2018-09-06T17:20:49.192Z,18.99
2018-09-06T17:23:17.875Z,18.98
2018-09-06T17:25:46.439Z,19.09
2018-09-06T17:28:15.007Z,19.18
2018-09-06T17:30:43.612Z,19.23
2018-09-06T17:33:12.245Z,19.17
2018-09-06T17:35:40.752Z,19.20
2018-09-06T17:38:09.588Z,19.24
2018-09-06T17:40:38.143Z,19.31
2018-09-06T17:43:06.724Z,19.33
2018-09-06T17:45:35.443Z,19.34
2018-09-06T17:48:04.006Z,19.34
2018-09-06T17:50:32.999Z,19.34
2018-09-06T17:53:01.738Z,19.36
2018-09-06T17:55:30.392Z,19.46
2018-09-06T17:57:58.959Z,19.38
2018-09-06T18:00:27.676Z,19.43
2018-09-06T18:02:56.296Z,19.52
2018-09-06T18:05:24.859Z,19.59
2018-09-06T18:07:53.747Z,19.55
2018-09-06T18:10:22.300Z,19.58
2018-09-06T18:12:50.884Z,19.59
2018-09-06T18:15:19.472Z,19.63
2018-09-06T18:17:48.206Z,19.63
2018-09-06T18:20:16.717Z,19.63
2018-09-06T18:22:45.423Z,19.63
2018-09-06T18:25:14.088Z,19.64
2018-09-06T18:27:42.755Z,19.67
2018-09-06T18:30:11.680Z,19.67
2018-09-06T18:32:40.259Z,19.66
2018-09-06T18:35:08.816Z,19.66
2018-09-06T18:37:37.416Z,19.69
2018-09-06T18:40:05.992Z,19.68
2018-09-06T18:42:34.571Z,19.69
2018-09-06T18:45:03.180Z,19.72
2018-09-06T18:47:31.821Z,19.74
2018-09-06T18:50:00.396Z,19.77
2018-09-06T18:52:29.148Z,19.82
2018-09-06T18:54:57.711Z,19.85
2018-09-06T18:57:26.284Z,19.87
2018-09-06T18:59:55.143Z,19.80
2018-09-06T19:02:23.733Z,19.84
2018-09-06T19:04:52.287Z,19.86
2018-09-06T19:07:20.876Z,19.90
2018-09-06T19:09:49.448Z,19.94
2018-09-06T19:12:18.003Z,19.95
2018-09-06T19:14:46.696Z,19.90
2018-09-06T19:17:15.247Z,19.91
2018-09-06T19:19:43.791Z,19.87
2018-09-06T19:22:12.409Z,19.90
2018-09-06T19:24:41.160Z,19.95
2018-09-06T19:27:09.719Z,19.93
2018-09-06T19:29:38.387Z,19.97
2018-09-06T19:32:07.072Z,19.95
2018-09-06T19:34:35.603Z,19.95
2018-09-06T19:37:04.200Z,19.94
2018-09-06T19:39:32.805Z,19.98
2018-09-06T19:42:01.360Z,20.00
2018-09-06T19:44:30.384Z,19.99
2018-09-06T19:46:58.948Z,20.07
2018-09-06T19:49:27.499Z,20.05
2018-09-06T19:51:56.250Z,20.10
2018-09-06T19:54:24.942Z,20.12
2018-09-06T19:56:54.003Z,20.09
2018-09-06T19:59:22.847Z,20.12
2018-09-06T20:01:51.465Z,20.12
2018-09-06T20:04:20.139Z,20.14
2018-09-06T20:06:48.807Z,20.13
2018-09-06T20:09:17.381Z,20.07
2018-09-06T20:11:46.000Z,20.01
2018-09-06T20:14:15.016Z,19.99
2018-09-06T20:16:43.626Z,20.00
2018-09-06T20:19:12.160Z,20.02
2018-09-06T20:21:40.976Z,19.99
2018-09-06T20:24:09.523Z,19.98
2018-09-06T20:26:38.082Z,19.96
2018-09-06T20:29:06.745Z,19.92
2018-09-06T20:31:35.287Z,19.93
2018-09-06T20:34:03.843Z,19.94
2018-09-06T20:36:32.591Z,19.90
2018-09-06T20:39:01.169Z,19.91
2018-09-06T20:41:29.763Z,19.87
2018-09-06T20:43:58.355Z,19.91
2018-09-06T20:46:26.899Z,19.86
2018-09-06T20:48:55.452Z,19.87
2018-09-06T20:51:24.900Z,19.83
2018-09-06T20:53:54.011Z,19.85
2018-09-06T20:56:22.580Z,19.87
2018-09-06T20:58:51.150Z,19.82
2018-09-06T21:01:19.700Z,19.82
2018-09-06T21:03:48.491Z,19.80
2018-09-06T21:06:17.334Z,19.77
2018-09-06T21:08:45.907Z,19.79
2018-09-06T21:11:14.512Z,19.76
2018-09-06T21:13:43.095Z,19.68
2018-09-06T21:16:11.695Z,19.62
2018-09-06T21:18:40.260Z,19.56
2018-09-06T21:21:08.888Z,19.51
2018-09-06T21:23:37.460Z,19.48
2018-09-06T21:26:06.220Z,19.49
2018-09-06T21:28:34.814Z,19.46
2018-09-06T21:31:03.387Z,19.46
2018-09-06T21:33:32.076Z,19.42
2018-09-06T21:36:00.768Z,19.39
2018-09-06T21:38:29.347Z,19.40
2018-09-06T21:40:57.908Z,19.40
2018-09-06T21:43:26.659Z,19.38
2018-09-06T21:45:55.272Z,19.38
2018-09-06T21:48:23.819Z,19.46
2018-09-06T21:50:52.483Z,19.49
2018-09-06T21:53:21.019Z,19.43
2018-09-06T21:55:49.650Z,19.48
2018-09-06T21:58:18.620Z,19.48
2018-09-06T22:00:47.252Z,19.48
2018-09-06T22:03:21.532Z,19.46
2018-09-06T22:05:50.071Z,19.50
2018-09-06T22:08:18.618Z,19.51
2018-09-06T22:10:47.589Z,19.51
2018-09-06T22:13:16.151Z,19.55
2018-09-06T22:15:44.703Z,19.51
2018-09-06T22:18:13.539Z,19.52
2018-09-06T22:20:42.108Z,19.48
2018-09-06T22:23:10.663Z,19.48
2018-09-06T22:25:39.626Z,19.46
2018-09-06T22:28:08.163Z,19.47
2018-09-06T22:30:36.728Z,19.42
2018-09-06T22:33:05.400Z,19.39
2018-09-06T22:35:33.951Z,19.39
2018-09-06T22:38:02.598Z,19.41
2018-09-06T22:40:31.208Z,19.44
2018-09-06T22:42:59.775Z,19.41
2018-09-06T22:45:28.319Z,19.40
2018-09-06T22:47:57.284Z,19.42
2018-09-06T22:50:25.939Z,19.39
2018-09-06T22:52:54.492Z,19.42
2018-09-06T22:55:23.085Z,19.39
2018-09-06T22:57:51.852Z,19.33
2018-09-06T23:00:21.114Z,19.30
2018-09-06T23:02:55.723Z,19.24
2018-09-06T23:05:24.739Z,19.19
2018-09-06T23:07:53.296Z,19.20
2018-09-06T23:10:21.894Z,19.17
2018-09-06T23:12:51.564Z,19.18
2018-09-06T23:15:20.406Z,19.21
2018-09-06T23:17:49.080Z,19.20
2018-09-06T23:20:17.662Z,19.17
2018-09-06T23:22:46.224Z,19.18
2018-09-06T23:25:14.827Z,19.20
2018-09-06T23:27:43.447Z,19.19
2018-09-06T23:30:12.034Z,19.18
2018-09-06T23:32:40.664Z,19.15
2018-09-06T23:35:09.216Z,19.13
2018-09-06T23:37:37.843Z,19.07
2018-09-06T23:40:06.447Z,19.06
2018-09-06T23:42:34.991Z,19.04
2018-09-06T23:45:03.560Z,19.06
2018-09-06T23:47:32.343Z,19.05
2018-09-06T23:50:00.979Z,19.09
2018-09-06T23:52:30.531Z,19.10
2018-09-06T23:54:59.580Z,19.09
2018-09-06T23:57:28.197Z,19.06
2018-09-06T23:59:56.751Z,19.07
